Huacho, Peru
Current Conditions -  °F | °C
As of 4:00 AM on Saturday 25 Oct 2014 (Local Time) from SPIM Reporting Station
Drizzle Drizzle  
Wind Chill: 63°   Ceiling: 1500
Heat Index: 63°   Visibility: 6mi
Dew Point: 59°   Wind: 3mph
Humidity: 88%   Direction: 160°SSE
Pressure: 30"   Gusts: NA
Location:  11.11°S, 77.62°W
Report Text: SPIM 250900Z 16003KT 9999 -DZ FEW010 OVC015 17/15 Q1016 NOSIG RMK PPTRZ
Loading
Personal Weather Stations






























Interactive Weather Map
Tropical Storm Tracking
New forecast layout! Learn more

10-Day Weather Forecast

Advertisements
Track Severe Weather on mobile